sensor_id;sensor_type;location;lat;lon;timestamp;pressure;altitude;pressure_sealevel;temperature;humidity
77250;BME280;66287;42.658;27.568;2023-04-08T00:00:40;100558.53;;;9.57;62.99
77250;BME280;66287;42.658;27.568;2023-04-08T00:03:05;100560.59;;;9.55;63.13
77250;BME280;66287;42.658;27.568;2023-04-08T00:05:32;100563.28;;;9.55;63.27
77250;BME280;66287;42.658;27.568;2023-04-08T00:07:57;100556.19;;;9.54;63.69
77250;BME280;66287;42.658;27.568;2023-04-08T00:10:23;100561.59;;;9.54;63.40
77250;BME280;66287;42.658;27.568;2023-04-08T00:12:50;100562.63;;;9.53;63.58
77250;BME280;66287;42.658;27.568;2023-04-08T00:15:16;100555.34;;;9.53;63.25
77250;BME280;66287;42.658;27.568;2023-04-08T00:17:41;100560.94;;;9.52;63.76
77250;BME280;66287;42.658;27.568;2023-04-08T00:20:07;100555.72;;;9.50;63.61
77250;BME280;66287;42.658;27.568;2023-04-08T00:22:32;100554.03;;;9.49;64.56
77250;BME280;66287;42.658;27.568;2023-04-08T00:24:58;100545.47;;;9.46;64.56
77250;BME280;66287;42.658;27.568;2023-04-08T00:27:23;100554.22;;;9.48;64.41
77250;BME280;66287;42.658;27.568;2023-04-08T00:29:51;100559.63;;;9.48;64.42
77250;BME280;66287;42.658;27.568;2023-04-08T00:32:17;100554.59;;;9.45;64.61
77250;BME280;66287;42.658;27.568;2023-04-08T00:34:42;100556.66;;;9.43;64.84
77250;BME280;66287;42.658;27.568;2023-04-08T00:37:08;100560.56;;;9.40;64.69
77250;BME280;66287;42.658;27.568;2023-04-08T00:39:33;100562.25;;;9.41;64.50
77250;BME280;66287;42.658;27.568;2023-04-08T00:41:59;100557.84;;;9.40;65.15
77250;BME280;66287;42.658;27.568;2023-04-08T00:44:26;100555.38;;;9.39;65.12
77250;BME280;66287;42.658;27.568;2023-04-08T00:46:51;100554.06;;;9.35;65.03
77250;BME280;66287;42.658;27.568;2023-04-08T00:49:17;100547.16;;;9.32;65.33
77250;BME280;66287;42.658;27.568;2023-04-08T00:51:42;100546.69;;;9.28;65.17
77250;BME280;66287;42.658;27.568;2023-04-08T00:54:08;100550.78;;;9.24;64.67
77250;BME280;66287;42.658;27.568;2023-04-08T00:56:33;100551.13;;;9.21;65.35
77250;BME280;66287;42.658;27.568;2023-04-08T00:58:59;100539.41;;;9.14;65.00
77250;BME280;66287;42.658;27.568;2023-04-08T01:01:42;100548.72;;;9.12;65.34
77250;BME280;66287;42.658;27.568;2023-04-08T01:09:34;100537.91;;;8.97;64.91
77250;BME280;66287;42.658;27.568;2023-04-08T01:12:03;100540.97;;;8.94;64.01
77250;BME280;66287;42.658;27.568;2023-04-08T01:14:29;100542.34;;;8.90;64.20
77250;BME280;66287;42.658;27.568;2023-04-08T01:16:57;100543.06;;;8.84;65.16
77250;BME280;66287;42.658;27.568;2023-04-08T01:19:25;100534.88;;;8.77;64.13
77250;BME280;66287;42.658;27.568;2023-04-08T01:21:52;100531.69;;;8.74;64.47
77250;BME280;66287;42.658;27.568;2023-04-08T01:24:22;100532.72;;;8.73;64.10
77250;BME280;66287;42.658;27.568;2023-04-08T01:26:51;100528.03;;;8.67;65.00
77250;BME280;66287;42.658;27.568;2023-04-08T01:29:16;100525.69;;;8.63;64.00
77250;BME280;66287;42.658;27.568;2023-04-08T01:31:43;100528.75;;;8.60;64.95
77250;BME280;66287;42.658;27.568;2023-04-08T01:34:09;100539.94;;;8.57;64.05
77250;BME280;66287;42.658;27.568;2023-04-08T01:36:36;100535.94;;;8.53;64.16
77250;BME280;66287;42.658;27.568;2023-04-08T01:39:03;100535.09;;;8.53;63.61
77250;BME280;66287;42.658;27.568;2023-04-08T01:41:30;100532.91;;;8.48;64.02
77250;BME280;66287;42.658;27.568;2023-04-08T01:43:58;100537.66;;;8.46;63.94
77250;BME280;66287;42.658;27.568;2023-04-08T01:46:23;100534.28;;;8.44;64.68
77250;BME280;66287;42.658;27.568;2023-04-08T01:48:50;100534.28;;;8.44;64.50
77250;BME280;66287;42.658;27.568;2023-04-08T01:51:16;100541.75;;;8.42;64.00
77250;BME280;66287;42.658;27.568;2023-04-08T01:53:42;100536.72;;;8.39;64.10
77250;BME280;66287;42.658;27.568;2023-04-08T01:56:10;100547.03;;;8.36;64.04
77250;BME280;66287;42.658;27.568;2023-04-08T01:58:40;100542.00;;;8.33;64.18
77250;BME280;66287;42.658;27.568;2023-04-08T02:01:09;100544.00;;;8.30;64.09
77250;BME280;66287;42.658;27.568;2023-04-08T02:03:35;100546.69;;;8.30;65.09
77250;BME280;66287;42.658;27.568;2023-04-08T02:06:01;100542.31;;;8.29;64.13
77250;BME280;66287;42.658;27.568;2023-04-08T02:08:27;100541.00;;;8.25;64.98
77250;BME280;66287;42.658;27.568;2023-04-08T02:10:52;100547.59;;;8.23;64.21
77250;BME280;66287;42.658;27.568;2023-04-08T02:13:17;100549.16;;;8.17;64.78
77250;BME280;66287;42.658;27.568;2023-04-08T02:15:44;100549.34;;;8.16;64.86
77250;BME280;66287;42.658;27.568;2023-04-08T02:18:19;100553.59;;;8.10;64.10
77250;BME280;66287;42.658;27.568;2023-04-08T02:20:47;100551.06;;;8.09;64.60
77250;BME280;66287;42.658;27.568;2023-04-08T02:23:19;100548.03;;;8.04;64.37
77250;BME280;66287;42.658;27.568;2023-04-08T02:25:46;100555.47;;;8.02;64.23
77250;BME280;66287;42.658;27.568;2023-04-08T02:28:11;100549.63;;;7.98;64.54
77250;BME280;66287;42.658;27.568;2023-04-08T02:30:41;100547.28;;;7.95;64.91
77250;BME280;66287;42.658;27.568;2023-04-08T02:33:07;100543.91;;;7.93;64.55
77250;BME280;66287;42.658;27.568;2023-04-08T02:35:34;100543.91;;;7.93;65.08
77250;BME280;66287;42.658;27.568;2023-04-08T02:38:00;100549.47;;;7.91;64.31
77250;BME280;66287;42.658;27.568;2023-04-08T02:40:27;100544.59;;;7.87;65.05
77250;BME280;66287;42.658;27.568;2023-04-08T02:42:54;100546.81;;;7.83;65.17
77250;BME280;66287;42.658;27.568;2023-04-08T02:45:20;100539.91;;;7.81;64.81
77250;BME280;66287;42.658;27.568;2023-04-08T02:47:48;100549.41;;;7.77;65.60
77250;BME280;66287;42.658;27.568;2023-04-08T02:50:13;100546.88;;;7.75;64.32
77250;BME280;66287;42.658;27.568;2023-04-08T02:52:39;100560.72;;;7.72;64.74
77250;BME280;66287;42.658;27.568;2023-04-08T02:55:05;100555.66;;;7.69;64.73
77250;BME280;66287;42.658;27.568;2023-04-08T02:57:34;100555.34;;;7.64;64.42
77250;BME280;66287;42.658;27.568;2023-04-08T02:59:59;100555.69;;;7.61;64.92
77250;BME280;66287;42.658;27.568;2023-04-08T03:02:24;100551.50;;;7.58;65.25
77250;BME280;66287;42.658;27.568;2023-04-08T03:04:50;100552.34;;;7.59;64.80
77250;BME280;66287;42.658;27.568;2023-04-08T03:07:15;100552.88;;;7.54;65.26
77250;BME280;66287;42.658;27.568;2023-04-08T03:09:41;100564.84;;;7.52;65.97
77250;BME280;66287;42.658;27.568;2023-04-08T03:12:06;100572.94;;;7.52;65.74
77250;BME280;66287;42.658;27.568;2023-04-08T03:14:31;100568.53;;;7.51;65.50
77250;BME280;66287;42.658;27.568;2023-04-08T03:16:57;100563.16;;;7.51;66.04
77250;BME280;66287;42.658;27.568;2023-04-08T03:19:22;100560.63;;;7.49;66.07
77250;BME280;66287;42.658;27.568;2023-04-08T03:21:48;100568.03;;;7.47;65.88
77250;BME280;66287;42.658;27.568;2023-04-08T03:24:13;100572.94;;;7.44;65.87
77250;BME280;66287;42.658;27.568;2023-04-08T03:26:39;100581.75;;;7.38;66.76
77250;BME280;66287;42.658;27.568;2023-04-08T03:29:04;100582.75;;;7.37;65.86
77250;BME280;66287;42.658;27.568;2023-04-08T03:31:31;100578.38;;;7.36;66.71
77250;BME280;66287;42.658;27.568;2023-04-08T03:33:56;100581.06;;;7.36;66.35
77250;BME280;66287;42.658;27.568;2023-04-08T03:36:22;100581.25;;;7.34;66.34
77250;BME280;66287;42.658;27.568;2023-04-08T03:38:47;100584.28;;;7.31;65.76
77250;BME280;66287;42.658;27.568;2023-04-08T03:41:13;100594.56;;;7.28;66.16
77250;BME280;66287;42.658;27.568;2023-04-08T03:43:38;100597.25;;;7.28;65.94
77250;BME280;66287;42.658;27.568;2023-04-08T03:46:03;100594.91;;;7.24;66.22
77250;BME280;66287;42.658;27.568;2023-04-08T03:48:29;100604.00;;;7.23;66.29
77250;BME280;66287;42.658;27.568;2023-04-08T03:50:54;100605.84;;;7.23;67.14
77250;BME280;66287;42.658;27.568;2023-04-08T03:53:20;100603.66;;;7.26;66.76
77250;BME280;66287;42.658;27.568;2023-04-08T03:55:47;100605.34;;;7.28;66.48
77250;BME280;66287;42.658;27.568;2023-04-08T03:58:12;100605.34;;;7.28;66.89
77250;BME280;66287;42.658;27.568;2023-04-08T04:00:38;100614.78;;;7.32;66.83
77250;BME280;66287;42.658;27.568;2023-04-08T04:03:04;100619.00;;;7.34;67.09
77250;BME280;66287;42.658;27.568;2023-04-08T04:05:29;100614.44;;;7.35;66.59
77250;BME280;66287;42.658;27.568;2023-04-08T04:07:54;100622.19;;;7.38;66.59
77250;BME280;66287;42.658;27.568;2023-04-08T04:10:20;100620.97;;;7.48;67.31
77250;BME280;66287;42.658;27.568;2023-04-08T04:12:45;100622.81;;;7.56;67.94
77250;BME280;66287;42.658;27.568;2023-04-08T04:15:11;100624.63;;;7.64;67.86
77250;BME280;66287;42.658;27.568;2023-04-08T04:17:37;100625.44;;;7.72;67.34
77250;BME280;66287;42.658;27.568;2023-04-08T04:20:05;100626.75;;;7.84;67.28
77250;BME280;66287;42.658;27.568;2023-04-08T04:22:31;100633.06;;;8.00;67.50
77250;BME280;66287;42.658;27.568;2023-04-08T04:24:57;100629.66;;;8.14;66.19
77250;BME280;66287;42.658;27.568;2023-04-08T04:27:22;100630.41;;;8.30;66.13
77250;BME280;66287;42.658;27.568;2023-04-08T04:29:48;100634.88;;;8.46;66.52
77250;BME280;66287;42.658;27.568;2023-04-08T04:32:13;100629.38;;;8.62;65.42
77250;BME280;66287;42.658;27.568;2023-04-08T04:34:38;100638.84;;;8.81;66.48
77250;BME280;66287;42.658;27.568;2023-04-08T04:37:04;100645.44;;;9.02;66.29
77250;BME280;66287;42.658;27.568;2023-04-08T04:39:30;100640.75;;;9.18;66.13
77250;BME280;66287;42.658;27.568;2023-04-08T04:41:55;100625.22;;;9.35;66.16
77250;BME280;66287;42.658;27.568;2023-04-08T04:44:21;100633.72;;;9.47;66.70
77250;BME280;66287;42.658;27.568;2023-04-08T04:46:46;100631.00;;;9.61;66.53
77250;BME280;66287;42.658;27.568;2023-04-08T04:49:12;100638.38;;;9.67;66.11
77250;BME280;66287;42.658;27.568;2023-04-08T04:51:37;100637.53;;;9.67;66.35
77250;BME280;66287;42.658;27.568;2023-04-08T04:54:03;100640.44;;;9.65;66.81
77250;BME280;66287;42.658;27.568;2023-04-08T04:56:28;100638.09;;;9.62;66.77
77250;BME280;66287;42.658;27.568;2023-04-08T04:58:54;100641.28;;;9.66;66.96
77250;BME280;66287;42.658;27.568;2023-04-08T05:01:19;100636.16;;;9.71;67.37
77250;BME280;66287;42.658;27.568;2023-04-08T05:03:45;100635.78;;;9.74;67.72
77250;BME280;66287;42.658;27.568;2023-04-08T05:06:10;100635.00;;;9.80;67.73
77250;BME280;66287;42.658;27.568;2023-04-08T05:08:36;100633.63;;;9.99;68.20
77250;BME280;66287;42.658;27.568;2023-04-08T05:11:01;100640.22;;;10.26;68.66
77250;BME280;66287;42.658;27.568;2023-04-08T05:13:27;100636.53;;;10.48;68.69
77250;BME280;66287;42.658;27.568;2023-04-08T05:15:52;100646.28;;;10.64;68.40
77250;BME280;66287;42.658;27.568;2023-04-08T05:18:18;100644.09;;;10.74;68.43
77250;BME280;66287;42.658;27.568;2023-04-08T05:20:44;100641.63;;;11.00;68.84
77250;BME280;66287;42.658;27.568;2023-04-08T05:23:09;100642.84;;;11.47;68.66
77250;BME280;66287;42.658;27.568;2023-04-08T05:25:35;100644.28;;;11.99;68.04
77250;BME280;66287;42.658;27.568;2023-04-08T05:28:00;100641.50;;;12.47;67.44
77250;BME280;66287;42.658;27.568;2023-04-08T05:30:26;100647.91;;;12.93;66.82
77250;BME280;66287;42.658;27.568;2023-04-08T05:32:51;100655.72;;;13.36;67.01
77250;BME280;66287;42.658;27.568;2023-04-08T05:35:16;100650.00;;;13.77;66.13
77250;BME280;66287;42.658;27.568;2023-04-08T05:37:42;100658.06;;;14.17;65.69
77250;BME280;66287;42.658;27.568;2023-04-08T05:40:07;100661.91;;;14.54;65.77
77250;BME280;66287;42.658;27.568;2023-04-08T05:42:33;100655.00;;;14.89;65.38
77250;BME280;66287;42.658;27.568;2023-04-08T05:44:59;100658.31;;;15.23;64.73
77250;BME280;66287;42.658;27.568;2023-04-08T05:47:24;100659.16;;;15.48;64.49
77250;BME280;66287;42.658;27.568;2023-04-08T05:49:50;100658.19;;;15.85;64.27
77250;BME280;66287;42.658;27.568;2023-04-08T05:52:15;100662.00;;;16.21;63.48
77250;BME280;66287;42.658;27.568;2023-04-08T05:54:44;100660.38;;;16.50;61.65
77250;BME280;66287;42.658;27.568;2023-04-08T05:57:10;100658.16;;;16.77;58.35
77250;BME280;66287;42.658;27.568;2023-04-08T05:59:35;100667.16;;;16.96;54.36
77250;BME280;66287;42.658;27.568;2023-04-08T06:02:01;100669.13;;;16.88;55.41
77250;BME280;66287;42.658;27.568;2023-04-08T06:04:26;100667.53;;;16.51;56.75
77250;BME280;66287;42.658;27.568;2023-04-08T06:06:52;100669.28;;;16.27;55.93
77250;BME280;66287;42.658;27.568;2023-04-08T06:09:18;100674.59;;;16.22;55.09
77250;BME280;66287;42.658;27.568;2023-04-08T06:11:44;100676.66;;;16.27;56.82
77250;BME280;66287;42.658;27.568;2023-04-08T06:14:11;100675.88;;;16.01;57.53
77250;BME280;66287;42.658;27.568;2023-04-08T06:16:36;100680.88;;;15.86;57.40
77250;BME280;66287;42.658;27.568;2023-04-08T06:19:02;100668.59;;;15.77;56.85
77250;BME280;66287;42.658;27.568;2023-04-08T06:21:27;100680.66;;;15.88;59.78
77250;BME280;66287;42.658;27.568;2023-04-08T06:23:53;100672.84;;;15.91;57.58
77250;BME280;66287;42.658;27.568;2023-04-08T06:26:18;100678.16;;;15.86;59.29
77250;BME280;66287;42.658;27.568;2023-04-08T06:28:44;100680.09;;;15.79;59.94
77250;BME280;66287;42.658;27.568;2023-04-08T06:31:09;100689.22;;;15.73;60.16
77250;BME280;66287;42.658;27.568;2023-04-08T06:33:35;100686.66;;;15.78;60.60
77250;BME280;66287;42.658;27.568;2023-04-08T06:36:01;100678.59;;;15.83;58.90
77250;BME280;66287;42.658;27.568;2023-04-08T06:38:27;100686.56;;;15.84;59.51
77250;BME280;66287;42.658;27.568;2023-04-08T06:40:52;100685.75;;;15.84;59.90
77250;BME280;66287;42.658;27.568;2023-04-08T06:43:17;100692.81;;;15.92;60.55
77250;BME280;66287;42.658;27.568;2023-04-08T06:45:43;100688.88;;;16.06;60.86
77250;BME280;66287;42.658;27.568;2023-04-08T06:48:08;100691.09;;;16.15;61.04
77250;BME280;66287;42.658;27.568;2023-04-08T06:50:34;100688.66;;;16.26;59.92
77250;BME280;66287;42.658;27.568;2023-04-08T06:53:00;100682.56;;;16.42;59.16
77250;BME280;66287;42.658;27.568;2023-04-08T06:55:25;100680.22;;;16.64;60.35
77250;BME280;66287;42.658;27.568;2023-04-08T06:57:51;100681.47;;;16.79;60.13
77250;BME280;66287;42.658;27.568;2023-04-08T07:00:16;100687.38;;;16.95;59.13
77250;BME280;66287;42.658;27.568;2023-04-08T07:02:42;100684.22;;;17.21;59.20
77250;BME280;66287;42.658;27.568;2023-04-08T07:05:07;100681.16;;;17.41;57.95
77250;BME280;66287;42.658;27.568;2023-04-08T07:07:33;100675.72;;;17.52;57.39
77250;BME280;66287;42.658;27.568;2023-04-08T07:09:58;100683.38;;;17.74;57.12
77250;BME280;66287;42.658;27.568;2023-04-08T07:12:24;100679.56;;;17.75;54.03
77250;BME280;66287;42.658;27.568;2023-04-08T07:14:49;100681.94;;;17.71;53.99
77250;BME280;66287;42.658;27.568;2023-04-08T07:17:15;100683.00;;;17.82;55.01
77250;BME280;66287;42.658;27.568;2023-04-08T07:19:40;100682.66;;;18.02;54.37
77250;BME280;66287;42.658;27.568;2023-04-08T07:22:06;100679.44;;;18.16;53.90
77250;BME280;66287;42.658;27.568;2023-04-08T07:24:31;100686.00;;;18.15;51.76
77250;BME280;66287;42.658;27.568;2023-04-08T07:26:58;100688.13;;;18.13;51.57
77250;BME280;66287;42.658;27.568;2023-04-08T07:29:23;100687.16;;;18.31;53.59
77250;BME280;66287;42.658;27.568;2023-04-08T07:31:49;100686.16;;;18.49;50.84
77250;BME280;66287;42.658;27.568;2023-04-08T07:34:15;100684.38;;;19.28;53.28
77250;BME280;66287;42.658;27.568;2023-04-08T07:36:41;100687.88;;;19.40;48.06
77250;BME280;66287;42.658;27.568;2023-04-08T07:39:06;100703.03;;;19.26;46.16
77250;BME280;66287;42.658;27.568;2023-04-08T07:41:32;100701.06;;;18.93;46.56
77250;BME280;66287;42.658;27.568;2023-04-08T07:43:57;100714.41;;;18.73;48.40
77250;BME280;66287;42.658;27.568;2023-04-08T07:46:23;100715.59;;;18.65;46.86
77250;BME280;66287;42.658;27.568;2023-04-08T07:48:48;100713.97;;;18.41;50.01
77250;BME280;66287;42.658;27.568;2023-04-08T07:51:14;100713.59;;;18.49;48.44
77250;BME280;66287;42.658;27.568;2023-04-08T07:53:40;100714.88;;;18.70;47.96
77250;BME280;66287;42.658;27.568;2023-04-08T07:56:12;100712.19;;;18.86;48.09
77250;BME280;66287;42.658;27.568;2023-04-08T07:58:37;100715.03;;;18.91;48.58
77250;BME280;66287;42.658;27.568;2023-04-08T08:01:13;100722.78;;;18.95;49.92
77250;BME280;66287;42.658;27.568;2023-04-08T08:03:38;100727.41;;;18.77;48.27
77250;BME280;66287;42.658;27.568;2023-04-08T08:06:03;100730.38;;;18.76;51.66
77250;BME280;66287;42.658;27.568;2023-04-08T08:08:29;100730.56;;;18.86;51.66
77250;BME280;66287;42.658;27.568;2023-04-08T08:10:57;100734.06;;;19.10;49.30
77250;BME280;66287;42.658;27.568;2023-04-08T08:13:23;100735.44;;;19.41;47.89
77250;BME280;66287;42.658;27.568;2023-04-08T08:15:51;100729.69;;;19.42;46.60
77250;BME280;66287;42.658;27.568;2023-04-08T08:18:16;100736.97;;;19.48;48.18
77250;BME280;66287;42.658;27.568;2023-04-08T08:20:42;100728.84;;;19.70;47.00
77250;BME280;66287;42.658;27.568;2023-04-08T08:23:07;100735.16;;;19.87;43.58
77250;BME280;66287;42.658;27.568;2023-04-08T08:25:32;100740.91;;;20.03;45.17
77250;BME280;66287;42.658;27.568;2023-04-08T08:27:58;100734.22;;;20.15;42.90
77250;BME280;66287;42.658;27.568;2023-04-08T08:30:23;100733.28;;;20.65;44.40
77250;BME280;66287;42.658;27.568;2023-04-08T08:32:50;100738.34;;;20.73;42.29
77250;BME280;66287;42.658;27.568;2023-04-08T08:35:16;100732.06;;;20.56;43.79
77250;BME280;66287;42.658;27.568;2023-04-08T08:37:41;100737.78;;;21.20;43.36
77250;BME280;66287;42.658;27.568;2023-04-08T08:40:07;100736.66;;;21.80;39.26
77250;BME280;66287;42.658;27.568;2023-04-08T08:42:33;100728.53;;;21.63;39.25
77250;BME280;66287;42.658;27.568;2023-04-08T08:45:00;100738.25;;;22.03;39.31
77250;BME280;66287;42.658;27.568;2023-04-08T08:47:26;100740.97;;;22.34;38.47
77250;BME280;66287;42.658;27.568;2023-04-08T08:49:51;100741.56;;;22.47;39.90
77250;BME280;66287;42.658;27.568;2023-04-08T08:52:16;100729.38;;;23.00;39.17
77250;BME280;66287;42.658;27.568;2023-04-08T08:54:43;100716.41;;;23.21;35.55
77250;BME280;66287;42.658;27.568;2023-04-08T08:57:18;100726.94;;;23.39;37.88
77250;BME280;66287;42.658;27.568;2023-04-08T08:59:46;100729.16;;;24.18;36.02
77250;BME280;66287;42.658;27.568;2023-04-08T09:02:28;100723.59;;;24.49;31.77
77250;BME280;66287;42.658;27.568;2023-04-08T09:05:01;100722.56;;;23.84;33.89
77250;BME280;66287;42.658;27.568;2023-04-08T09:07:27;100719.81;;;23.74;33.14
77250;BME280;66287;42.658;27.568;2023-04-08T09:09:53;100723.13;;;23.70;33.93
77250;BME280;66287;42.658;27.568;2023-04-08T09:12:19;100720.75;;;24.64;33.99
77250;BME280;66287;42.658;27.568;2023-04-08T09:14:45;100723.28;;;25.15;34.10
77250;BME280;66287;42.658;27.568;2023-04-08T09:17:11;100719.53;;;26.02;31.03
77250;BME280;66287;42.658;27.568;2023-04-08T09:19:37;100724.97;;;26.18;30.09
77250;BME280;66287;42.658;27.568;2023-04-08T09:22:09;100722.19;;;26.89;28.69
77250;BME280;66287;42.658;27.568;2023-04-08T09:24:35;100713.66;;;26.81;28.09
77250;BME280;66287;42.658;27.568;2023-04-08T09:27:04;100711.28;;;26.74;28.45
77250;BME280;66287;42.658;27.568;2023-04-08T09:29:29;100705.03;;;26.82;29.04
77250;BME280;66287;42.658;27.568;2023-04-08T09:31:56;100719.94;;;26.91;26.97
77250;BME280;66287;42.658;27.568;2023-04-08T09:34:22;100707.72;;;27.30;29.36
77250;BME280;66287;42.658;27.568;2023-04-08T09:36:48;100708.38;;;27.59;27.68
77250;BME280;66287;42.658;27.568;2023-04-08T09:39:14;100707.03;;;27.00;27.79
77250;BME280;66287;42.658;27.568;2023-04-08T09:41:39;100705.94;;;26.77;27.58
77250;BME280;66287;42.658;27.568;2023-04-08T09:44:06;100704.25;;;26.58;27.35
77250;BME280;66287;42.658;27.568;2023-04-08T09:54:18;100694.75;;;27.01;25.84
77250;BME280;66287;42.658;27.568;2023-04-08T09:56:59;100701.78;;;27.18;26.12
77250;BME280;66287;42.658;27.568;2023-04-08T09:59:26;100700.19;;;27.30;26.40
77250;BME280;66287;42.658;27.568;2023-04-08T10:01:53;100701.28;;;27.67;25.89
77250;BME280;66287;42.658;27.568;2023-04-08T10:04:21;100699.47;;;27.76;24.73
77250;BME280;66287;42.658;27.568;2023-04-08T10:06:49;100706.00;;;27.99;26.99
77250;BME280;66287;42.658;27.568;2023-04-08T10:09:18;100705.44;;;28.16;25.02
77250;BME280;66287;42.658;27.568;2023-04-08T10:11:44;100709.78;;;27.57;25.49
77250;BME280;66287;42.658;27.568;2023-04-08T10:14:09;100713.69;;;27.74;26.03
77250;BME280;66287;42.658;27.568;2023-04-08T10:16:35;100711.78;;;28.02;24.83
77250;BME280;66287;42.658;27.568;2023-04-08T10:19:01;100696.84;;;28.12;25.27
77250;BME280;66287;42.658;27.568;2023-04-08T10:21:30;100704.78;;;28.19;24.31
77250;BME280;66287;42.658;27.568;2023-04-08T10:23:55;100708.81;;;26.91;24.64
77250;BME280;66287;42.658;27.568;2023-04-08T10:26:30;100705.53;;;27.78;26.13
77250;BME280;66287;42.658;27.568;2023-04-08T10:31:43;100706.47;;;28.20;24.64
77250;BME280;66287;42.658;27.568;2023-04-08T10:34:14;100697.81;;;28.49;24.99
77250;BME280;66287;42.658;27.568;2023-04-08T10:36:39;100698.22;;;28.28;25.37
77250;BME280;66287;42.658;27.568;2023-04-08T10:39:05;100686.66;;;28.21;25.52
77250;BME280;66287;42.658;27.568;2023-04-08T10:41:31;100684.13;;;28.06;25.72
77250;BME280;66287;42.658;27.568;2023-04-08T10:43:56;100692.44;;;28.25;25.23
77250;BME280;66287;42.658;27.568;2023-04-08T10:46:22;100694.94;;;28.26;25.50
77250;BME280;66287;42.658;27.568;2023-04-08T10:48:58;100695.44;;;28.28;25.38
77250;BME280;66287;42.658;27.568;2023-04-08T10:51:23;100686.25;;;27.82;25.79
77250;BME280;66287;42.658;27.568;2023-04-08T10:53:49;100689.41;;;27.61;25.92
77250;BME280;66287;42.658;27.568;2023-04-08T10:56:14;100684.22;;;28.01;25.78
77250;BME280;66287;42.658;27.568;2023-04-08T10:58:54;100680.13;;;28.12;25.09
77250;BME280;66287;42.658;27.568;2023-04-08T11:01:23;100680.22;;;27.93;25.80
77250;BME280;66287;42.658;27.568;2023-04-08T11:03:48;100674.22;;;28.00;25.15
77250;BME280;66287;42.658;27.568;2023-04-08T11:06:17;100674.50;;;27.85;25.51
77250;BME280;66287;42.658;27.568;2023-04-08T11:08:43;100685.84;;;27.74;27.09
77250;BME280;66287;42.658;27.568;2023-04-08T11:11:10;100682.16;;;27.60;25.28
77250;BME280;66287;42.658;27.568;2023-04-08T11:13:42;100673.38;;;27.86;25.53
77250;BME280;66287;42.658;27.568;2023-04-08T11:16:09;100684.72;;;28.35;25.98
77250;BME280;66287;42.658;27.568;2023-04-08T11:18:35;100668.69;;;28.13;25.12
77250;BME280;66287;42.658;27.568;2023-04-08T11:21:01;100671.84;;;27.93;26.00
77250;BME280;66287;42.658;27.568;2023-04-08T11:23:28;100668.31;;;27.55;26.56
77250;BME280;66287;42.658;27.568;2023-04-08T11:25:53;100666.50;;;27.64;26.92
77250;BME280;66287;42.658;27.568;2023-04-08T11:28:19;100667.88;;;27.67;26.28
77250;BME280;66287;42.658;27.568;2023-04-08T11:30:45;100664.31;;;27.29;27.86
77250;BME280;66287;42.658;27.568;2023-04-08T11:33:12;100659.34;;;27.91;27.06
77250;BME280;66287;42.658;27.568;2023-04-08T11:35:41;100660.03;;;28.29;26.21
77250;BME280;66287;42.658;27.568;2023-04-08T11:38:07;100663.22;;;28.22;25.93
77250;BME280;66287;42.658;27.568;2023-04-08T11:40:33;100665.59;;;28.42;26.59
77250;BME280;66287;42.658;27.568;2023-04-08T11:42:59;100661.22;;;28.09;25.26
77250;BME280;66287;42.658;27.568;2023-04-08T11:45:36;100657.66;;;28.50;25.72
77250;BME280;66287;42.658;27.568;2023-04-08T11:48:07;100652.84;;;28.91;24.89
77250;BME280;66287;42.658;27.568;2023-04-08T11:50:32;100637.38;;;29.07;25.55
77250;BME280;66287;42.658;27.568;2023-04-08T11:52:58;100644.03;;;29.56;24.04
77250;BME280;66287;42.658;27.568;2023-04-08T11:55:25;100643.53;;;29.54;23.35
77250;BME280;66287;42.658;27.568;2023-04-08T11:57:51;100637.91;;;29.09;24.40
77250;BME280;66287;42.658;27.568;2023-04-08T12:00:17;100641.81;;;29.44;25.00
77250;BME280;66287;42.658;27.568;2023-04-08T12:02:43;100644.53;;;29.36;23.66
77250;BME280;66287;42.658;27.568;2023-04-08T12:05:08;100635.25;;;29.49;23.64
77250;BME280;66287;42.658;27.568;2023-04-08T12:07:35;100637.78;;;29.59;22.07
77250;BME280;66287;42.658;27.568;2023-04-08T12:10:00;100647.22;;;29.05;23.13
77250;BME280;66287;42.658;27.568;2023-04-08T12:12:25;100638.41;;;29.34;25.11
77250;BME280;66287;42.658;27.568;2023-04-08T12:14:51;100637.78;;;29.14;23.26
77250;BME280;66287;42.658;27.568;2023-04-08T12:17:17;100646.16;;;29.14;23.44
77250;BME280;66287;42.658;27.568;2023-04-08T12:19:42;100634.72;;;29.25;23.85
77250;BME280;66287;42.658;27.568;2023-04-08T12:22:08;100633.75;;;29.43;24.59
77250;BME280;66287;42.658;27.568;2023-04-08T12:24:33;100636.50;;;29.65;23.22
77250;BME280;66287;42.658;27.568;2023-04-08T12:26:59;100644.78;;;29.48;22.99
77250;BME280;66287;42.658;27.568;2023-04-08T12:29:26;100643.00;;;29.52;24.02
77250;BME280;66287;42.658;27.568;2023-04-08T12:31:52;100631.59;;;29.04;24.49
77250;BME280;66287;42.658;27.568;2023-04-08T12:34:17;100629.09;;;29.16;24.12
77250;BME280;66287;42.658;27.568;2023-04-08T12:36:43;100622.16;;;28.91;25.19
77250;BME280;66287;42.658;27.568;2023-04-08T12:39:09;100621.78;;;29.29;23.96
77250;BME280;66287;42.658;27.568;2023-04-08T12:41:34;100629.81;;;29.44;23.98
77250;BME280;66287;42.658;27.568;2023-04-08T12:44:00;100616.41;;;29.32;24.51
77250;BME280;66287;42.658;27.568;2023-04-08T12:46:25;100613.63;;;29.55;24.17
77250;BME280;66287;42.658;27.568;2023-04-08T12:48:51;100629.13;;;29.02;24.64
77250;BME280;66287;42.658;27.568;2023-04-08T12:51:16;100616.94;;;29.21;23.69
77250;BME280;66287;42.658;27.568;2023-04-08T12:53:42;100625.84;;;29.23;24.61